sensor_id;sensor_type;location;lat;lon;timestamp;P1;P2;P0
32503;PMS5003;18953;45.930;13.640;2024-01-30T00:00:55;33;29;
32503;PMS5003;18953;45.930;13.640;2024-01-30T00:06:11;33;31;
32503;PMS5003;18953;45.930;13.640;2024-01-30T00:11:28;26;24;
32503;PMS5003;18953;45.930;13.640;2024-01-30T00:16:44;24;23;
32503;PMS5003;18953;45.930;13.640;2024-01-30T00:22:01;31;27;
32503;PMS5003;18953;45.930;13.640;2024-01-30T00:27:18;32;27;
32503;PMS5003;18953;45.930;13.640;2024-01-30T00:32:34;27;26;
32503;PMS5003;18953;45.930;13.640;2024-01-30T00:37:50;23;20;
32503;PMS5003;18953;45.930;13.640;2024-01-30T00:43:07;24;23;
32503;PMS5003;18953;45.930;13.640;2024-01-30T00:48:23;39;32;
32503;PMS5003;18953;45.930;13.640;2024-01-30T00:53:39;41;35;
32503;PMS5003;18953;45.930;13.640;2024-01-30T00:58:56;40;38;
32503;PMS5003;18953;45.930;13.640;2024-01-30T01:04:12;28;25;
32503;PMS5003;18953;45.930;13.640;2024-01-30T01:09:29;24;23;
32503;PMS5003;18953;45.930;13.640;2024-01-30T01:14:45;46;42;
32503;PMS5003;18953;45.930;13.640;2024-01-30T01:20:02;33;30;
32503;PMS5003;18953;45.930;13.640;2024-01-30T01:25:18;42;35;
32503;PMS5003;18953;45.930;13.640;2024-01-30T01:30:34;37;34;
32503;PMS5003;18953;45.930;13.640;2024-01-30T01:46:26;31;27;
32503;PMS5003;18953;45.930;13.640;2024-01-30T01:51:40;24;21;
32503;PMS5003;18953;45.930;13.640;2024-01-30T01:56:56;24;22;
32503;PMS5003;18953;45.930;13.640;2024-01-30T02:02:13;24;19;
32503;PMS5003;18953;45.930;13.640;2024-01-30T02:07:29;20;19;
32503;PMS5003;18953;45.930;13.640;2024-01-30T02:12:46;30;28;
32503;PMS5003;18953;45.930;13.640;2024-01-30T02:18:02;32;27;
32503;PMS5003;18953;45.930;13.640;2024-01-30T02:23:19;22;21;
32503;PMS5003;18953;45.930;13.640;2024-01-30T02:28:35;32;30;
32503;PMS5003;18953;45.930;13.640;2024-01-30T02:33:51;25;24;
32503;PMS5003;18953;45.930;13.640;2024-01-30T02:39:08;29;25;
32503;PMS5003;18953;45.930;13.640;2024-01-30T02:44:24;24;22;
32503;PMS5003;18953;45.930;13.640;2024-01-30T02:49:40;24;23;
32503;PMS5003;18953;45.930;13.640;2024-01-30T02:54:57;26;22;
32503;PMS5003;18953;45.930;13.640;2024-01-30T03:00:13;25;20;
32503;PMS5003;18953;45.930;13.640;2024-01-30T03:05:29;21;18;
32503;PMS5003;18953;45.930;13.640;2024-01-30T03:10:46;17;15;
32503;PMS5003;18953;45.930;13.640;2024-01-30T03:16:02;17;16;
32503;PMS5003;18953;45.930;13.640;2024-01-30T03:21:18;13;13;
32503;PMS5003;18953;45.930;13.640;2024-01-30T03:26:35;18;16;
32503;PMS5003;18953;45.930;13.640;2024-01-30T03:37:13;37;33;
32503;PMS5003;18953;45.930;13.640;2024-01-30T03:42:30;34;30;
32503;PMS5003;18953;45.930;13.640;2024-01-30T03:47:46;17;16;
32503;PMS5003;18953;45.930;13.640;2024-01-30T03:53:03;16;15;
32503;PMS5003;18953;45.930;13.640;2024-01-30T03:58:19;18;17;
32503;PMS5003;18953;45.930;13.640;2024-01-30T04:03:35;17;15;
32503;PMS5003;18953;45.930;13.640;2024-01-30T04:08:52;16;15;
32503;PMS5003;18953;45.930;13.640;2024-01-30T04:14:08;19;17;
32503;PMS5003;18953;45.930;13.640;2024-01-30T04:19:24;18;17;
32503;PMS5003;18953;45.930;13.640;2024-01-30T04:24:41;20;18;
32503;PMS5003;18953;45.930;13.640;2024-01-30T04:29:57;22;19;
32503;PMS5003;18953;45.930;13.640;2024-01-30T04:35:14;20;19;
32503;PMS5003;18953;45.930;13.640;2024-01-30T04:45:51;20;17;
32503;PMS5003;18953;45.930;13.640;2024-01-30T04:51:08;25;22;
32503;PMS5003;18953;45.930;13.640;2024-01-30T04:56:25;23;22;
32503;PMS5003;18953;45.930;13.640;2024-01-30T05:01:41;18;17;
32503;PMS5003;18953;45.930;13.640;2024-01-30T05:06:57;30;28;
32503;PMS5003;18953;45.930;13.640;2024-01-30T05:12:14;26;25;
32503;PMS5003;18953;45.930;13.640;2024-01-30T05:17:30;17;16;
32503;PMS5003;18953;45.930;13.640;2024-01-30T05:22:47;19;16;
32503;PMS5003;18953;45.930;13.640;2024-01-30T05:28:03;23;22;
32503;PMS5003;18953;45.930;13.640;2024-01-30T05:33:19;28;27;
32503;PMS5003;18953;45.930;13.640;2024-01-30T05:38:36;39;31;
32503;PMS5003;18953;45.930;13.640;2024-01-30T05:43:53;37;32;
32503;PMS5003;18953;45.930;13.640;2024-01-30T05:49:09;32;27;
32503;PMS5003;18953;45.930;13.640;2024-01-30T05:54:25;30;27;
32503;PMS5003;18953;45.930;13.640;2024-01-30T05:59:43;46;43;
32503;PMS5003;18953;45.930;13.640;2024-01-30T06:04:59;36;36;
32503;PMS5003;18953;45.930;13.640;2024-01-30T06:10:15;38;29;
32503;PMS5003;18953;45.930;13.640;2024-01-30T06:15:31;30;27;
32503;PMS5003;18953;45.930;13.640;2024-01-30T06:20:48;36;33;
32503;PMS5003;18953;45.930;13.640;2024-01-30T06:26:06;46;43;
32503;PMS5003;18953;45.930;13.640;2024-01-30T06:31:21;45;41;
32503;PMS5003;18953;45.930;13.640;2024-01-30T06:36:38;33;32;
32503;PMS5003;18953;45.930;13.640;2024-01-30T06:41:54;36;34;
32503;PMS5003;18953;45.930;13.640;2024-01-30T06:47:10;36;34;
32503;PMS5003;18953;45.930;13.640;2024-01-30T06:52:26;36;35;
32503;PMS5003;18953;45.930;13.640;2024-01-30T06:57:43;53;47;
32503;PMS5003;18953;45.930;13.640;2024-01-30T07:03:00;87;67;
32503;PMS5003;18953;45.930;13.640;2024-01-30T07:08:16;93;70;
32503;PMS5003;18953;45.930;13.640;2024-01-30T07:13:34;95;73;
32503;PMS5003;18953;45.930;13.640;2024-01-30T07:18:49;79;62;
32503;PMS5003;18953;45.930;13.640;2024-01-30T07:24:06;78;60;
32503;PMS5003;18953;45.930;13.640;2024-01-30T07:29:22;71;56;
32503;PMS5003;18953;45.930;13.640;2024-01-30T07:34:39;61;51;
32503;PMS5003;18953;45.930;13.640;2024-01-30T07:39:55;74;57;
32503;PMS5003;18953;45.930;13.640;2024-01-30T07:45:12;79;60;
32503;PMS5003;18953;45.930;13.640;2024-01-30T07:50:28;70;56;
32503;PMS5003;18953;45.930;13.640;2024-01-30T07:55:46;83;63;
32503;PMS5003;18953;45.930;13.640;2024-01-30T08:01:02;75;58;
32503;PMS5003;18953;45.930;13.640;2024-01-30T08:06:18;54;46;
32503;PMS5003;18953;45.930;13.640;2024-01-30T08:11:35;62;50;
32503;PMS5003;18953;45.930;13.640;2024-01-30T08:16:51;52;45;
32503;PMS5003;18953;45.930;13.640;2024-01-30T08:22:07;59;48;
32503;PMS5003;18953;45.930;13.640;2024-01-30T08:27:24;34;31;
32503;PMS5003;18953;45.930;13.640;2024-01-30T08:32:40;36;33;
32503;PMS5003;18953;45.930;13.640;2024-01-30T08:37:56;26;25;
32503;PMS5003;18953;45.930;13.640;2024-01-30T08:43:13;26;24;
32503;PMS5003;18953;45.930;13.640;2024-01-30T08:48:29;23;22;
32503;PMS5003;18953;45.930;13.640;2024-01-30T08:53:45;30;26;
32503;PMS5003;18953;45.930;13.640;2024-01-30T08:59:02;32;26;
32503;PMS5003;18953;45.930;13.640;2024-01-30T09:04:18;25;22;
32503;PMS5003;18953;45.930;13.640;2024-01-30T09:09:35;26;23;
32503;PMS5003;18953;45.930;13.640;2024-01-30T09:14:51;26;24;
32503;PMS5003;18953;45.930;13.640;2024-01-30T09:20:07;29;27;
32503;PMS5003;18953;45.930;13.640;2024-01-30T09:25:23;26;24;
32503;PMS5003;18953;45.930;13.640;2024-01-30T09:30:40;22;20;
32503;PMS5003;18953;45.930;13.640;2024-01-30T09:35:56;22;22;
32503;PMS5003;18953;45.930;13.640;2024-01-30T09:41:12;29;27;
32503;PMS5003;18953;45.930;13.640;2024-01-30T09:46:29;31;28;
32503;PMS5003;18953;45.930;13.640;2024-01-30T09:51:45;24;22;
32503;PMS5003;18953;45.930;13.640;2024-01-30T09:57:01;25;22;
32503;PMS5003;18953;45.930;13.640;2024-01-30T10:02:18;25;23;
32503;PMS5003;18953;45.930;13.640;2024-01-30T10:07:34;20;19;
32503;PMS5003;18953;45.930;13.640;2024-01-30T10:12:51;17;15;
32503;PMS5003;18953;45.930;13.640;2024-01-30T10:18:08;16;16;
32503;PMS5003;18953;45.930;13.640;2024-01-30T10:23:23;18;17;
32503;PMS5003;18953;45.930;13.640;2024-01-30T10:28:39;22;20;
32503;PMS5003;18953;45.930;13.640;2024-01-30T10:33:56;12;12;
32503;PMS5003;18953;45.930;13.640;2024-01-30T10:39:12;12;11;
32503;PMS5003;18953;45.930;13.640;2024-01-30T10:44:28;14;13;
32503;PMS5003;18953;45.930;13.640;2024-01-30T10:49:44;12;11;
32503;PMS5003;18953;45.930;13.640;2024-01-30T10:55:01;11;10;
32503;PMS5003;18953;45.930;13.640;2024-01-30T11:00:17;8;8;
32503;PMS5003;18953;45.930;13.640;2024-01-30T11:05:33;13;11;
32503;PMS5003;18953;45.930;13.640;2024-01-30T11:10:54;14;13;
32503;PMS5003;18953;45.930;13.640;2024-01-30T11:16:06;14;12;
32503;PMS5003;18953;45.930;13.640;2024-01-30T11:21:24;15;14;
32503;PMS5003;18953;45.930;13.640;2024-01-30T11:26:39;12;11;
32503;PMS5003;18953;45.930;13.640;2024-01-30T11:31:55;10;9;
32503;PMS5003;18953;45.930;13.640;2024-01-30T11:37:11;14;14;
32503;PMS5003;18953;45.930;13.640;2024-01-30T11:42:27;11;10;
32503;PMS5003;18953;45.930;13.640;2024-01-30T11:47:44;11;10;
32503;PMS5003;18953;45.930;13.640;2024-01-30T11:53:00;12;10;
32503;PMS5003;18953;45.930;13.640;2024-01-30T11:58:16;12;12;
32503;PMS5003;18953;45.930;13.640;2024-01-30T12:03:33;12;10;
32503;PMS5003;18953;45.930;13.640;2024-01-30T12:09:04;13;10;
32503;PMS5003;18953;45.930;13.640;2024-01-30T12:14:05;11;10;
32503;PMS5003;18953;45.930;13.640;2024-01-30T12:19:22;16;14;
32503;PMS5003;18953;45.930;13.640;2024-01-30T12:24:38;10;10;
32503;PMS5003;18953;45.930;13.640;2024-01-30T12:29:55;12;11;
32503;PMS5003;18953;45.930;13.640;2024-01-30T12:35:11;14;12;
32503;PMS5003;18953;45.930;13.640;2024-01-30T12:40:27;11;11;
32503;PMS5003;18953;45.930;13.640;2024-01-30T12:45:43;9;7;
32503;PMS5003;18953;45.930;13.640;2024-01-30T12:50:59;9;8;
32503;PMS5003;18953;45.930;13.640;2024-01-30T12:56:16;10;9;
32503;PMS5003;18953;45.930;13.640;2024-01-30T13:01:32;8;7;
32503;PMS5003;18953;45.930;13.640;2024-01-30T13:06:48;8;8;
32503;PMS5003;18953;45.930;13.640;2024-01-30T13:12:05;11;10;
32503;PMS5003;18953;45.930;13.640;2024-01-30T13:17:21;9;9;
32503;PMS5003;18953;45.930;13.640;2024-01-30T13:22:38;60;44;
32503;PMS5003;18953;45.930;13.640;2024-01-30T13:27:54;18;17;
32503;PMS5003;18953;45.930;13.640;2024-01-30T13:33:10;54;41;
32503;PMS5003;18953;45.930;13.640;2024-01-30T13:38:27;49;38;
32503;PMS5003;18953;45.930;13.640;2024-01-30T13:43:44;31;29;
32503;PMS5003;18953;45.930;13.640;2024-01-30T13:49:00;16;13;
32503;PMS5003;18953;45.930;13.640;2024-01-30T13:54:16;22;22;
32503;PMS5003;18953;45.930;13.640;2024-01-30T13:59:32;13;12;
32503;PMS5003;18953;45.930;13.640;2024-01-30T14:04:49;17;15;
32503;PMS5003;18953;45.930;13.640;2024-01-30T14:10:05;21;19;
32503;PMS5003;18953;45.930;13.640;2024-01-30T14:15:21;24;24;
32503;PMS5003;18953;45.930;13.640;2024-01-30T14:20:38;27;24;
32503;PMS5003;18953;45.930;13.640;2024-01-30T14:25:54;18;16;
32503;PMS5003;18953;45.930;13.640;2024-01-30T14:31:10;18;17;
32503;PMS5003;18953;45.930;13.640;2024-01-30T14:36:27;15;14;
32503;PMS5003;18953;45.930;13.640;2024-01-30T14:41:43;14;14;
32503;PMS5003;18953;45.930;13.640;2024-01-30T14:46:59;14;13;
32503;PMS5003;18953;45.930;13.640;2024-01-30T14:52:18;14;13;
32503;PMS5003;18953;45.930;13.640;2024-01-30T14:57:32;24;23;
32503;PMS5003;18953;45.930;13.640;2024-01-30T15:02:49;18;16;
32503;PMS5003;18953;45.930;13.640;2024-01-30T15:08:05;17;15;
32503;PMS5003;18953;45.930;13.640;2024-01-30T15:13:22;18;17;
32503;PMS5003;18953;45.930;13.640;2024-01-30T15:18:38;19;19;
32503;PMS5003;18953;45.930;13.640;2024-01-30T15:23:54;18;16;
32503;PMS5003;18953;45.930;13.640;2024-01-30T15:29:11;21;20;
32503;PMS5003;18953;45.930;13.640;2024-01-30T15:34:27;34;31;
32503;PMS5003;18953;45.930;13.640;2024-01-30T15:39:43;16;14;
32503;PMS5003;18953;45.930;13.640;2024-01-30T15:45:00;24;21;
32503;PMS5003;18953;45.930;13.640;2024-01-30T15:50:16;23;21;
32503;PMS5003;18953;45.930;13.640;2024-01-30T15:55:32;31;30;
32503;PMS5003;18953;45.930;13.640;2024-01-30T16:00:49;26;25;
32503;PMS5003;18953;45.930;13.640;2024-01-30T16:06:05;33;30;
32503;PMS5003;18953;45.930;13.640;2024-01-30T16:11:21;28;26;
32503;PMS5003;18953;45.930;13.640;2024-01-30T16:16:38;32;32;
32503;PMS5003;18953;45.930;13.640;2024-01-30T16:21:54;34;32;
32503;PMS5003;18953;45.930;13.640;2024-01-30T16:27:10;36;29;
32503;PMS5003;18953;45.930;13.640;2024-01-30T16:32:27;47;40;
32503;PMS5003;18953;45.930;13.640;2024-01-30T16:37:44;36;31;
32503;PMS5003;18953;45.930;13.640;2024-01-30T16:43:00;38;34;
32503;PMS5003;18953;45.930;13.640;2024-01-30T16:48:16;32;30;
32503;PMS5003;18953;45.930;13.640;2024-01-30T16:53:33;75;58;
32503;PMS5003;18953;45.930;13.640;2024-01-30T16:58:50;141;116;
32503;PMS5003;18953;45.930;13.640;2024-01-30T17:04:07;93;76;
32503;PMS5003;18953;45.930;13.640;2024-01-30T17:09:23;82;64;
32503;PMS5003;18953;45.930;13.640;2024-01-30T17:14:39;74;58;
32503;PMS5003;18953;45.930;13.640;2024-01-30T17:19:56;72;58;
32503;PMS5003;18953;45.930;13.640;2024-01-30T17:25:13;77;61;
32503;PMS5003;18953;45.930;13.640;2024-01-30T17:30:29;83;64;
32503;PMS5003;18953;45.930;13.640;2024-01-30T17:35:47;78;62;
32503;PMS5003;18953;45.930;13.640;2024-01-30T17:41:03;82;64;
32503;PMS5003;18953;45.930;13.640;2024-01-30T17:46:19;63;49;
32503;PMS5003;18953;45.930;13.640;2024-01-30T17:51:37;48;41;
32503;PMS5003;18953;45.930;13.640;2024-01-30T17:56:53;57;46;
32503;PMS5003;18953;45.930;13.640;2024-01-30T18:02:09;52;44;
32503;PMS5003;18953;45.930;13.640;2024-01-30T18:07:26;54;45;
32503;PMS5003;18953;45.930;13.640;2024-01-30T18:12:43;59;49;
32503;PMS5003;18953;45.930;13.640;2024-01-30T18:17:59;58;47;
32503;PMS5003;18953;45.930;13.640;2024-01-30T18:23:16;61;51;
32503;PMS5003;18953;45.930;13.640;2024-01-30T18:28:33;52;45;
32503;PMS5003;18953;45.930;13.640;2024-01-30T18:33:49;79;64;
32503;PMS5003;18953;45.930;13.640;2024-01-30T18:39:06;61;49;
32503;PMS5003;18953;45.930;13.640;2024-01-30T18:44:22;63;51;
32503;PMS5003;18953;45.930;13.640;2024-01-30T18:49:38;78;60;
32503;PMS5003;18953;45.930;13.640;2024-01-30T18:54:55;59;48;
32503;PMS5003;18953;45.930;13.640;2024-01-30T19:00:12;51;44;
32503;PMS5003;18953;45.930;13.640;2024-01-30T19:05:28;70;57;
32503;PMS5003;18953;45.930;13.640;2024-01-30T19:10:44;71;54;
32503;PMS5003;18953;45.930;13.640;2024-01-30T19:16:00;86;66;
32503;PMS5003;18953;45.930;13.640;2024-01-30T19:21:17;61;51;
32503;PMS5003;18953;45.930;13.640;2024-01-30T19:26:33;43;38;
32503;PMS5003;18953;45.930;13.640;2024-01-30T19:31:50;61;50;
32503;PMS5003;18953;45.930;13.640;2024-01-30T19:37:06;49;41;
32503;PMS5003;18953;45.930;13.640;2024-01-30T19:42:23;50;43;
32503;PMS5003;18953;45.930;13.640;2024-01-30T19:47:40;51;45;
32503;PMS5003;18953;45.930;13.640;2024-01-30T19:52:56;44;41;
32503;PMS5003;18953;45.930;13.640;2024-01-30T19:58:13;74;61;
32503;PMS5003;18953;45.930;13.640;2024-01-30T20:03:29;106;80;
32503;PMS5003;18953;45.930;13.640;2024-01-30T20:08:45;94;69;
32503;PMS5003;18953;45.930;13.640;2024-01-30T20:14:02;79;62;
32503;PMS5003;18953;45.930;13.640;2024-01-30T20:19:18;77;62;
32503;PMS5003;18953;45.930;13.640;2024-01-30T20:24:34;73;58;
32503;PMS5003;18953;45.930;13.640;2024-01-30T20:29:51;73;60;
32503;PMS5003;18953;45.930;13.640;2024-01-30T20:35:08;61;51;
32503;PMS5003;18953;45.930;13.640;2024-01-30T20:40:24;71;58;
32503;PMS5003;18953;45.930;13.640;2024-01-30T20:45:41;68;54;
32503;PMS5003;18953;45.930;13.640;2024-01-30T20:50:58;65;51;
32503;PMS5003;18953;45.930;13.640;2024-01-30T20:56:15;68;54;
32503;PMS5003;18953;45.930;13.640;2024-01-30T21:01:31;68;53;
32503;PMS5003;18953;45.930;13.640;2024-01-30T21:06:47;58;48;
32503;PMS5003;18953;45.930;13.640;2024-01-30T21:12:04;55;47;
32503;PMS5003;18953;45.930;13.640;2024-01-30T21:17:20;50;44;
32503;PMS5003;18953;45.930;13.640;2024-01-30T21:22:38;119;101;
32503;PMS5003;18953;45.930;13.640;2024-01-30T21:27:55;79;63;
32503;PMS5003;18953;45.930;13.640;2024-01-30T21:33:11;60;47;
32503;PMS5003;18953;45.930;13.640;2024-01-30T21:38:27;46;41;
32503;PMS5003;18953;45.930;13.640;2024-01-30T21:43:44;60;48;
32503;PMS5003;18953;45.930;13.640;2024-01-30T21:49:01;49;41;
32503;PMS5003;18953;45.930;13.640;2024-01-30T21:54:18;50;42;
32503;PMS5003;18953;45.930;13.640;2024-01-30T21:59:34;51;45;
32503;PMS5003;18953;45.930;13.640;2024-01-30T22:04:50;47;39;
32503;PMS5003;18953;45.930;13.640;2024-01-30T22:10:07;50;45;
32503;PMS5003;18953;45.930;13.640;2024-01-30T22:15:23;42;36;
32503;PMS5003;18953;45.930;13.640;2024-01-30T22:20:39;59;46;
32503;PMS5003;18953;45.930;13.640;2024-01-30T22:25:56;43;38;
32503;PMS5003;18953;45.930;13.640;2024-01-30T22:31:13;47;42;
32503;PMS5003;18953;45.930;13.640;2024-01-30T22:36:30;45;42;
32503;PMS5003;18953;45.930;13.640;2024-01-30T22:41:46;41;39;
32503;PMS5003;18953;45.930;13.640;2024-01-30T22:47:03;68;53;
32503;PMS5003;18953;45.930;13.640;2024-01-30T22:52:19;37;36;
32503;PMS5003;18953;45.930;13.640;2024-01-30T22:57:36;50;46;
32503;PMS5003;18953;45.930;13.640;2024-01-30T23:02:52;47;41;
32503;PMS5003;18953;45.930;13.640;2024-01-30T23:08:08;40;37;
32503;PMS5003;18953;45.930;13.640;2024-01-30T23:13:25;53;48;
32503;PMS5003;18953;45.930;13.640;2024-01-30T23:18:41;42;38;
32503;PMS5003;18953;45.930;13.640;2024-01-30T23:23:58;43;36;
32503;PMS5003;18953;45.930;13.640;2024-01-30T23:29:14;53;45;
32503;PMS5003;18953;45.930;13.640;2024-01-30T23:34:31;62;52;
32503;PMS5003;18953;45.930;13.640;2024-01-30T23:39:47;56;49;
32503;PMS5003;18953;45.930;13.640;2024-01-30T23:45:03;54;42;
32503;PMS5003;18953;45.930;13.640;2024-01-30T23:50:20;46;40;
32503;PMS5003;18953;45.930;13.640;2024-01-30T23:55:36;42;36;
